sensor_id;sensor_type;location;lat;lon;timestamp;P1;durP1;ratioP1;P2;durP2;ratioP2
26086;SDS011;13851;43.434;28.338;2022-09-09T00:00:40;2.95;;;2.22;;
26086;SDS011;13851;43.434;28.338;2022-09-09T00:03:12;4.00;;;2.40;;
26086;SDS011;13851;43.434;28.338;2022-09-09T00:06:05;2.30;;;2.10;;
26086;SDS011;13851;43.434;28.338;2022-09-09T00:11:23;3.60;;;2.30;;
26086;SDS011;13851;43.434;28.338;2022-09-09T00:13:53;3.33;;;2.20;;
26086;SDS011;13851;43.434;28.338;2022-09-09T00:16:22;2.95;;;2.30;;
26086;SDS011;13851;43.434;28.338;2022-09-09T00:21:47;3.05;;;2.30;;
26086;SDS011;13851;43.434;28.338;2022-09-09T00:27:08;5.32;;;2.10;;
26086;SDS011;13851;43.434;28.338;2022-09-09T00:29:53;4.45;;;2.20;;
26086;SDS011;13851;43.434;28.338;2022-09-09T00:32:24;2.90;;;2.40;;
26086;SDS011;13851;43.434;28.338;2022-09-09T00:34:55;4.28;;;2.42;;
26086;SDS011;13851;43.434;28.338;2022-09-09T00:37:26;3.58;;;2.33;;
26086;SDS011;13851;43.434;28.338;2022-09-09T00:39:54;2.42;;;2.20;;
26086;SDS011;13851;43.434;28.338;2022-09-09T00:42:36;3.75;;;2.40;;
26086;SDS011;13851;43.434;28.338;2022-09-09T00:47:50;4.05;;;2.05;;
26086;SDS011;13851;43.434;28.338;2022-09-09T00:58:36;2.60;;;1.92;;
26086;SDS011;13851;43.434;28.338;2022-09-09T01:01:05;2.20;;;2.00;;
26086;SDS011;13851;43.434;28.338;2022-09-09T01:04:10;2.00;;;1.80;;
26086;SDS011;13851;43.434;28.338;2022-09-09T01:06:36;5.68;;;2.08;;
26086;SDS011;13851;43.434;28.338;2022-09-09T01:12:44;4.20;;;2.35;;
26086;SDS011;13851;43.434;28.338;2022-09-09T01:14:49;4.43;;;2.28;;
26086;SDS011;13851;43.434;28.338;2022-09-09T01:28:48;4.68;;;2.20;;
26086;SDS011;13851;43.434;28.338;2022-09-09T01:31:28;3.10;;;2.30;;
26086;SDS011;13851;43.434;28.338;2022-09-09T01:34:02;4.32;;;2.00;;
26086;SDS011;13851;43.434;28.338;2022-09-09T01:39:17;3.08;;;2.10;;
26086;SDS011;13851;43.434;28.338;2022-09-09T01:41:42;5.07;;;2.05;;
26086;SDS011;13851;43.434;28.338;2022-09-09T01:44:08;2.67;;;1.73;;
26086;SDS011;13851;43.434;28.338;2022-09-09T01:46:34;3.50;;;1.90;;
26086;SDS011;13851;43.434;28.338;2022-09-09T01:49:00;3.15;;;2.28;;
26086;SDS011;13851;43.434;28.338;2022-09-09T01:51:29;4.95;;;1.92;;
26086;SDS011;13851;43.434;28.338;2022-09-09T01:53:55;3.47;;;1.92;;
26086;SDS011;13851;43.434;28.338;2022-09-09T02:09:53;3.63;;;1.98;;
26086;SDS011;13851;43.434;28.338;2022-09-09T02:12:42;2.50;;;1.98;;
26086;SDS011;13851;43.434;28.338;2022-09-09T02:15:15;2.38;;;2.15;;
26086;SDS011;13851;43.434;28.338;2022-09-09T02:17:46;4.75;;;3.28;;
26086;SDS011;13851;43.434;28.338;2022-09-09T02:20:14;8.65;;;5.13;;
26086;SDS011;13851;43.434;28.338;2022-09-09T02:22:41;3.70;;;2.90;;
26086;SDS011;13851;43.434;28.338;2022-09-09T02:25:10;5.75;;;2.95;;
26086;SDS011;13851;43.434;28.338;2022-09-09T02:27:39;3.75;;;2.13;;
26086;SDS011;13851;43.434;28.338;2022-09-09T02:30:08;5.07;;;2.33;;
26086;SDS011;13851;43.434;28.338;2022-09-09T02:32:35;8.13;;;4.55;;
26086;SDS011;13851;43.434;28.338;2022-09-09T02:35:08;4.25;;;2.28;;
26086;SDS011;13851;43.434;28.338;2022-09-09T02:37:40;5.13;;;2.60;;
26086;SDS011;13851;43.434;28.338;2022-09-09T02:40:10;3.60;;;2.75;;
26086;SDS011;13851;43.434;28.338;2022-09-09T02:42:40;4.25;;;2.17;;
26086;SDS011;13851;43.434;28.338;2022-09-09T02:45:10;4.72;;;2.83;;
26086;SDS011;13851;43.434;28.338;2022-09-09T02:58:02;3.92;;;2.28;;
26086;SDS011;13851;43.434;28.338;2022-09-09T03:00:31;5.45;;;3.42;;
26086;SDS011;13851;43.434;28.338;2022-09-09T03:02:57;1.92;;;1.70;;
26086;SDS011;13851;43.434;28.338;2022-09-09T03:05:23;3.58;;;1.92;;
26086;SDS011;13851;43.434;28.338;2022-09-09T03:07:50;2.25;;;1.90;;
26086;SDS011;13851;43.434;28.338;2022-09-09T03:10:16;2.28;;;1.75;;
26086;SDS011;13851;43.434;28.338;2022-09-09T03:12:42;3.05;;;1.58;;
26086;SDS011;13851;43.434;28.338;2022-09-09T03:15:08;3.58;;;1.80;;
26086;SDS011;13851;43.434;28.338;2022-09-09T03:17:34;2.25;;;2.05;;
26086;SDS011;13851;43.434;28.338;2022-09-09T03:20:02;5.07;;;1.85;;
26086;SDS011;13851;43.434;28.338;2022-09-09T03:22:31;2.47;;;1.90;;
26086;SDS011;13851;43.434;28.338;2022-09-09T03:27:58;3.90;;;1.83;;
26086;SDS011;13851;43.434;28.338;2022-09-09T03:30:26;3.60;;;1.85;;
26086;SDS011;13851;43.434;28.338;2022-09-09T03:32:52;2.03;;;1.83;;
26086;SDS011;13851;43.434;28.338;2022-09-09T03:35:18;1.75;;;1.60;;
26086;SDS011;13851;43.434;28.338;2022-09-09T03:37:44;1.90;;;1.52;;
26086;SDS011;13851;43.434;28.338;2022-09-09T03:40:10;4.07;;;1.92;;
26086;SDS011;13851;43.434;28.338;2022-09-09T03:42:37;1.80;;;1.45;;
26086;SDS011;13851;43.434;28.338;2022-09-09T03:45:04;3.45;;;1.90;;
26086;SDS011;13851;43.434;28.338;2022-09-09T03:47:30;1.70;;;1.50;;
26086;SDS011;13851;43.434;28.338;2022-09-09T03:49:56;2.65;;;1.75;;
26086;SDS011;13851;43.434;28.338;2022-09-09T03:52:22;2.95;;;1.75;;
26086;SDS011;13851;43.434;28.338;2022-09-09T03:54:50;3.45;;;1.85;;
26086;SDS011;13851;43.434;28.338;2022-09-09T03:57:16;2.85;;;1.90;;
26086;SDS011;13851;43.434;28.338;2022-09-09T03:59:42;2.85;;;2.00;;
26086;SDS011;13851;43.434;28.338;2022-09-09T04:02:08;3.17;;;1.75;;
26086;SDS011;13851;43.434;28.338;2022-09-09T04:04:34;6.20;;;1.88;;
26086;SDS011;13851;43.434;28.338;2022-09-09T04:07:00;2.28;;;1.80;;
26086;SDS011;13851;43.434;28.338;2022-09-09T04:09:26;3.28;;;1.67;;
26086;SDS011;13851;43.434;28.338;2022-09-09T04:11:52;3.45;;;1.85;;
26086;SDS011;13851;43.434;28.338;2022-09-09T04:14:18;3.97;;;1.80;;
26086;SDS011;13851;43.434;28.338;2022-09-09T04:16:44;2.55;;;1.95;;
26086;SDS011;13851;43.434;28.338;2022-09-09T04:19:10;4.03;;;2.03;;
26086;SDS011;13851;43.434;28.338;2022-09-09T04:21:39;2.95;;;1.90;;
26086;SDS011;13851;43.434;28.338;2022-09-09T04:24:06;2.67;;;2.17;;
26086;SDS011;13851;43.434;28.338;2022-09-09T04:26:33;1.60;;;1.50;;
26086;SDS011;13851;43.434;28.338;2022-09-09T04:29:01;3.58;;;2.05;;
26086;SDS011;13851;43.434;28.338;2022-09-09T04:31:28;4.35;;;2.10;;
26086;SDS011;13851;43.434;28.338;2022-09-09T04:33:54;2.00;;;1.80;;
26086;SDS011;13851;43.434;28.338;2022-09-09T04:36:20;3.22;;;2.20;;
26086;SDS011;13851;43.434;28.338;2022-09-09T04:38:46;13.77;;;5.95;;
26086;SDS011;13851;43.434;28.338;2022-09-09T04:41:13;5.35;;;3.83;;
26086;SDS011;13851;43.434;28.338;2022-09-09T04:43:40;3.03;;;2.28;;
26086;SDS011;13851;43.434;28.338;2022-09-09T04:46:05;9.30;;;8.23;;
26086;SDS011;13851;43.434;28.338;2022-09-09T04:48:31;6.07;;;4.18;;
26086;SDS011;13851;43.434;28.338;2022-09-09T04:50:58;10.15;;;5.93;;
26086;SDS011;13851;43.434;28.338;2022-09-09T04:53:26;5.40;;;2.95;;
26086;SDS011;13851;43.434;28.338;2022-09-09T04:56:02;5.10;;;3.30;;
26086;SDS011;13851;43.434;28.338;2022-09-09T04:58:30;4.13;;;2.88;;
26086;SDS011;13851;43.434;28.338;2022-09-09T05:01:02;5.50;;;3.05;;
26086;SDS011;13851;43.434;28.338;2022-09-09T05:03:32;5.30;;;2.92;;
26086;SDS011;13851;43.434;28.338;2022-09-09T05:06:02;3.42;;;3.10;;
26086;SDS011;13851;43.434;28.338;2022-09-09T05:08:48;6.70;;;3.65;;
26086;SDS011;13851;43.434;28.338;2022-09-09T05:13:44;2.75;;;2.00;;
26086;SDS011;13851;43.434;28.338;2022-09-09T05:16:10;2.53;;;1.98;;
26086;SDS011;13851;43.434;28.338;2022-09-09T05:18:37;4.47;;;2.00;;
26086;SDS011;13851;43.434;28.338;2022-09-09T05:21:04;1.92;;;1.83;;
26086;SDS011;13851;43.434;28.338;2022-09-09T05:23:30;3.47;;;1.70;;
26086;SDS011;13851;43.434;28.338;2022-09-09T05:25:57;4.53;;;1.70;;
26086;SDS011;13851;43.434;28.338;2022-09-09T05:28:23;5.25;;;2.00;;
26086;SDS011;13851;43.434;28.338;2022-09-09T05:30:57;1.70;;;1.60;;
26086;SDS011;13851;43.434;28.338;2022-09-09T05:33:28;1.92;;;1.73;;
26086;SDS011;13851;43.434;28.338;2022-09-09T05:36:04;3.20;;;1.70;;
26086;SDS011;13851;43.434;28.338;2022-09-09T05:38:33;2.67;;;1.48;;
26086;SDS011;13851;43.434;28.338;2022-09-09T05:40:59;1.73;;;1.52;;
26086;SDS011;13851;43.434;28.338;2022-09-09T05:43:26;5.90;;;1.85;;
26086;SDS011;13851;43.434;28.338;2022-09-09T05:46:06;4.85;;;1.70;;
26086;SDS011;13851;43.434;28.338;2022-09-09T05:48:35;2.10;;;1.70;;
26086;SDS011;13851;43.434;28.338;2022-09-09T05:51:02;2.83;;;1.70;;
26086;SDS011;13851;43.434;28.338;2022-09-09T05:53:29;8.32;;;2.70;;
26086;SDS011;13851;43.434;28.338;2022-09-09T05:56:05;4.45;;;2.28;;
26086;SDS011;13851;43.434;28.338;2022-09-09T05:58:32;8.07;;;2.80;;
26086;SDS011;13851;43.434;28.338;2022-09-09T06:01:00;3.63;;;1.83;;
26086;SDS011;13851;43.434;28.338;2022-09-09T06:03:27;3.15;;;1.73;;
26086;SDS011;13851;43.434;28.338;2022-09-09T06:05:59;4.28;;;1.92;;
26086;SDS011;13851;43.434;28.338;2022-09-09T06:08:33;2.55;;;1.48;;
26086;SDS011;13851;43.434;28.338;2022-09-09T06:11:02;2.20;;;1.37;;
26086;SDS011;13851;43.434;28.338;2022-09-09T06:13:30;5.38;;;1.73;;
26086;SDS011;13851;43.434;28.338;2022-09-09T06:15:56;2.20;;;1.40;;
26086;SDS011;13851;43.434;28.338;2022-09-09T06:18:21;3.50;;;1.92;;
26086;SDS011;13851;43.434;28.338;2022-09-09T06:20:57;3.90;;;1.63;;
26086;SDS011;13851;43.434;28.338;2022-09-09T06:23:29;1.88;;;1.55;;
26086;SDS011;13851;43.434;28.338;2022-09-09T06:26:06;2.35;;;1.73;;
26086;SDS011;13851;43.434;28.338;2022-09-09T06:28:34;2.28;;;1.50;;
26086;SDS011;13851;43.434;28.338;2022-09-09T06:31:02;1.95;;;1.70;;
26086;SDS011;13851;43.434;28.338;2022-09-09T06:33:36;2.53;;;1.63;;
26086;SDS011;13851;43.434;28.338;2022-09-09T06:36:06;2.13;;;1.70;;
26086;SDS011;13851;43.434;28.338;2022-09-09T06:38:37;2.03;;;1.50;;
26086;SDS011;13851;43.434;28.338;2022-09-09T06:41:04;7.65;;;2.03;;
26086;SDS011;13851;43.434;28.338;2022-09-09T06:43:31;2.50;;;1.30;;
26086;SDS011;13851;43.434;28.338;2022-09-09T06:48:27;2.25;;;1.45;;
26086;SDS011;13851;43.434;28.338;2022-09-09T06:51:27;2.90;;;1.65;;
26086;SDS011;13851;43.434;28.338;2022-09-09T06:53:47;2.28;;;1.20;;
26086;SDS011;13851;43.434;28.338;2022-09-09T06:58:53;3.05;;;1.58;;
26086;SDS011;13851;43.434;28.338;2022-09-09T07:01:20;3.60;;;1.67;;
26086;SDS011;13851;43.434;28.338;2022-09-09T07:03:51;3.17;;;1.65;;
26086;SDS011;13851;43.434;28.338;2022-09-09T07:06:19;3.78;;;1.52;;
26086;SDS011;13851;43.434;28.338;2022-09-09T07:08:53;3.45;;;1.67;;
26086;SDS011;13851;43.434;28.338;2022-09-09T07:11:20;3.63;;;1.50;;
26086;SDS011;13851;43.434;28.338;2022-09-09T07:13:47;2.25;;;1.33;;
26086;SDS011;13851;43.434;28.338;2022-09-09T07:16:15;2.33;;;1.42;;
26086;SDS011;13851;43.434;28.338;2022-09-09T07:18:42;2.75;;;1.30;;
26086;SDS011;13851;43.434;28.338;2022-09-09T07:21:11;2.17;;;1.42;;
26086;SDS011;13851;43.434;28.338;2022-09-09T07:23:39;2.65;;;1.52;;
26086;SDS011;13851;43.434;28.338;2022-09-09T07:26:13;3.80;;;1.40;;
26086;SDS011;13851;43.434;28.338;2022-09-09T07:28:41;1.70;;;1.25;;
26086;SDS011;13851;43.434;28.338;2022-09-09T07:31:08;3.15;;;1.92;;
26086;SDS011;13851;43.434;28.338;2022-09-09T07:33:40;5.20;;;1.63;;
26086;SDS011;13851;43.434;28.338;2022-09-09T07:36:07;2.08;;;1.25;;
26086;SDS011;13851;43.434;28.338;2022-09-09T07:38:39;2.65;;;1.40;;
26086;SDS011;13851;43.434;28.338;2022-09-09T07:41:20;4.18;;;1.40;;
26086;SDS011;13851;43.434;28.338;2022-09-09T07:43:48;4.35;;;1.38;;
26086;SDS011;13851;43.434;28.338;2022-09-09T07:46:15;2.53;;;1.60;;
26086;SDS011;13851;43.434;28.338;2022-09-09T07:48:46;3.40;;;1.40;;
26086;SDS011;13851;43.434;28.338;2022-09-09T07:51:17;1.85;;;1.60;;
26086;SDS011;13851;43.434;28.338;2022-09-09T07:53:45;3.47;;;1.60;;
26086;SDS011;13851;43.434;28.338;2022-09-09T07:56:15;4.22;;;1.60;;
26086;SDS011;13851;43.434;28.338;2022-09-09T08:01:11;4.68;;;2.35;;
26086;SDS011;13851;43.434;28.338;2022-09-09T08:03:54;1.55;;;1.30;;
26086;SDS011;13851;43.434;28.338;2022-09-09T08:06:23;4.40;;;1.80;;
26086;SDS011;13851;43.434;28.338;2022-09-09T08:08:50;2.20;;;1.58;;
26086;SDS011;13851;43.434;28.338;2022-09-09T08:11:16;3.25;;;1.48;;
26086;SDS011;13851;43.434;28.338;2022-09-09T08:13:42;5.03;;;1.48;;
26086;SDS011;13851;43.434;28.338;2022-09-09T08:16:16;1.95;;;1.33;;
26086;SDS011;13851;43.434;28.338;2022-09-09T08:18:43;3.70;;;1.40;;
26086;SDS011;13851;43.434;28.338;2022-09-09T08:21:16;3.72;;;1.60;;
26086;SDS011;13851;43.434;28.338;2022-09-09T08:24:02;4.13;;;1.40;;
26086;SDS011;13851;43.434;28.338;2022-09-09T08:26:40;1.50;;;1.40;;
26086;SDS011;13851;43.434;28.338;2022-09-09T08:29:08;3.40;;;1.30;;
26086;SDS011;13851;43.434;28.338;2022-09-09T08:31:55;1.77;;;1.25;;
26086;SDS011;13851;43.434;28.338;2022-09-09T08:34:22;1.52;;;1.20;;
26086;SDS011;13851;43.434;28.338;2022-09-09T08:36:50;1.55;;;1.33;;
26086;SDS011;13851;43.434;28.338;2022-09-09T08:39:17;2.42;;;1.63;;
26086;SDS011;13851;43.434;28.338;2022-09-09T08:44:25;3.10;;;1.50;;
26086;SDS011;13851;43.434;28.338;2022-09-09T08:52:37;3.40;;;1.20;;
26086;SDS011;13851;43.434;28.338;2022-09-09T08:55:10;2.88;;;1.65;;
26086;SDS011;13851;43.434;28.338;2022-09-09T08:57:43;2.28;;;1.20;;
26086;SDS011;13851;43.434;28.338;2022-09-09T09:00:11;2.25;;;1.35;;
26086;SDS011;13851;43.434;28.338;2022-09-09T09:02:43;1.75;;;1.35;;
26086;SDS011;13851;43.434;28.338;2022-09-09T09:08:36;2.17;;;1.50;;
26086;SDS011;13851;43.434;28.338;2022-09-09T09:13:25;4.80;;;1.42;;
26086;SDS011;13851;43.434;28.338;2022-09-09T09:18:57;4.13;;;1.48;;
26086;SDS011;13851;43.434;28.338;2022-09-09T09:21:39;5.18;;;1.52;;
26086;SDS011;13851;43.434;28.338;2022-09-09T09:24:34;2.42;;;1.65;;
26086;SDS011;13851;43.434;28.338;2022-09-09T09:29:58;1.35;;;1.25;;
26086;SDS011;13851;43.434;28.338;2022-09-09T09:32:25;4.25;;;1.30;;
26086;SDS011;13851;43.434;28.338;2022-09-09T09:34:56;2.30;;;1.38;;
26086;SDS011;13851;43.434;28.338;2022-09-09T09:37:27;3.13;;;1.40;;
26086;SDS011;13851;43.434;28.338;2022-09-09T09:40:07;3.67;;;1.48;;
26086;SDS011;13851;43.434;28.338;2022-09-09T09:42:37;3.40;;;1.70;;
26086;SDS011;13851;43.434;28.338;2022-09-09T09:45:21;2.25;;;1.30;;
26086;SDS011;13851;43.434;28.338;2022-09-09T09:48:04;2.25;;;1.33;;
26086;SDS011;13851;43.434;28.338;2022-09-09T09:50:31;2.33;;;1.35;;
26086;SDS011;13851;43.434;28.338;2022-09-09T09:52:59;2.28;;;1.80;;
26086;SDS011;13851;43.434;28.338;2022-09-09T09:55:31;2.78;;;1.60;;
26086;SDS011;13851;43.434;28.338;2022-09-09T09:58:03;3.33;;;1.20;;
26086;SDS011;13851;43.434;28.338;2022-09-09T10:00:33;2.25;;;1.17;;
26086;SDS011;13851;43.434;28.338;2022-09-09T10:03:02;2.63;;;1.48;;
26086;SDS011;13851;43.434;28.338;2022-09-09T10:05:45;1.40;;;1.20;;
26086;SDS011;13851;43.434;28.338;2022-09-09T10:08:13;2.55;;;1.80;;
26086;SDS011;13851;43.434;28.338;2022-09-09T10:22:05;3.08;;;1.38;;
26086;SDS011;13851;43.434;28.338;2022-09-09T10:32:48;4.05;;;1.33;;
26086;SDS011;13851;43.434;28.338;2022-09-09T10:46:08;2.72;;;1.60;;
26086;SDS011;13851;43.434;28.338;2022-09-09T10:51:58;2.45;;;1.50;;
26086;SDS011;13851;43.434;28.338;2022-09-09T10:57:29;7.47;;;1.90;;
26086;SDS011;13851;43.434;28.338;2022-09-09T11:03:06;6.25;;;1.70;;
26086;SDS011;13851;43.434;28.338;2022-09-09T11:05:46;4.80;;;1.48;;
26086;SDS011;13851;43.434;28.338;2022-09-09T11:08:29;3.90;;;1.65;;
26086;SDS011;13851;43.434;28.338;2022-09-09T11:13:46;2.33;;;1.40;;
26086;SDS011;13851;43.434;28.338;2022-09-09T11:22:07;2.53;;;1.40;;
26086;SDS011;13851;43.434;28.338;2022-09-09T11:24:44;3.47;;;1.65;;
26086;SDS011;13851;43.434;28.338;2022-09-09T11:27:23;2.03;;;1.60;;
26086;SDS011;13851;43.434;28.338;2022-09-09T11:40:38;3.10;;;1.70;;
26086;SDS011;13851;43.434;28.338;2022-09-09T11:43:05;2.15;;;1.70;;
26086;SDS011;13851;43.434;28.338;2022-09-09T11:45:38;3.20;;;1.50;;
26086;SDS011;13851;43.434;28.338;2022-09-09T11:48:05;3.80;;;1.60;;
26086;SDS011;13851;43.434;28.338;2022-09-09T11:50:57;2.88;;;1.48;;
26086;SDS011;13851;43.434;28.338;2022-09-09T11:53:25;3.30;;;1.52;;
26086;SDS011;13851;43.434;28.338;2022-09-09T11:56:09;2.67;;;1.70;;
26086;SDS011;13851;43.434;28.338;2022-09-09T11:58:39;2.90;;;1.55;;
26086;SDS011;13851;43.434;28.338;2022-09-09T12:01:41;1.95;;;1.48;;
26086;SDS011;13851;43.434;28.338;2022-09-09T12:06:52;3.78;;;1.60;;
26086;SDS011;13851;43.434;28.338;2022-09-09T12:15:16;4.05;;;1.70;;
26086;SDS011;13851;43.434;28.338;2022-09-09T12:17:46;2.00;;;1.80;;
26086;SDS011;13851;43.434;28.338;2022-09-09T12:28:41;4.68;;;1.98;;
26086;SDS011;13851;43.434;28.338;2022-09-09T12:33:43;2.20;;;1.95;;
26086;SDS011;13851;43.434;28.338;2022-09-09T12:36:13;5.28;;;2.33;;
26086;SDS011;13851;43.434;28.338;2022-09-09T12:38:43;2.65;;;2.42;;
26086;SDS011;13851;43.434;28.338;2022-09-09T12:41:22;5.65;;;2.53;;
26086;SDS011;13851;43.434;28.338;2022-09-09T12:43:49;6.82;;;2.85;;
26086;SDS011;13851;43.434;28.338;2022-09-09T12:51:59;6.18;;;3.05;;
26086;SDS011;13851;43.434;28.338;2022-09-09T12:54:30;4.97;;;3.47;;
26086;SDS011;13851;43.434;28.338;2022-09-09T12:56:57;3.72;;;3.13;;
26086;SDS011;13851;43.434;28.338;2022-09-09T12:59:24;4.95;;;3.05;;
26086;SDS011;13851;43.434;28.338;2022-09-09T13:01:55;4.97;;;3.63;;
26086;SDS011;13851;43.434;28.338;2022-09-09T13:04:22;4.53;;;3.08;;
26086;SDS011;13851;43.434;28.338;2022-09-09T13:06:47;9.70;;;3.88;;
26086;SDS011;13851;43.434;28.338;2022-09-09T13:09:14;3.75;;;3.45;;
26086;SDS011;13851;43.434;28.338;2022-09-09T13:11:44;3.80;;;3.50;;
26086;SDS011;13851;43.434;28.338;2022-09-09T13:14:27;3.78;;;3.45;;
26086;SDS011;13851;43.434;28.338;2022-09-09T13:16:59;6.07;;;3.45;;
26086;SDS011;13851;43.434;28.338;2022-09-09T13:19:29;3.50;;;3.20;;
26086;SDS011;13851;43.434;28.338;2022-09-09T13:22:11;5.43;;;4.20;;
26086;SDS011;13851;43.434;28.338;2022-09-09T13:24:44;3.67;;;3.35;;
26086;SDS011;13851;43.434;28.338;2022-09-09T13:29:57;7.72;;;3.67;;
26086;SDS011;13851;43.434;28.338;2022-09-09T13:32:23;5.65;;;3.72;;
26086;SDS011;13851;43.434;28.338;2022-09-09T13:34:55;4.20;;;3.50;;
26086;SDS011;13851;43.434;28.338;2022-09-09T13:37:33;3.72;;;3.33;;
26086;SDS011;13851;43.434;28.338;2022-09-09T13:40:02;5.18;;;3.90;;
26086;SDS011;13851;43.434;28.338;2022-09-09T13:42:30;4.18;;;3.03;;
26086;SDS011;13851;43.434;28.338;2022-09-09T13:45:00;3.97;;;3.22;;
26086;SDS011;13851;43.434;28.338;2022-09-09T13:50:09;4.20;;;3.67;;
26086;SDS011;13851;43.434;28.338;2022-09-09T13:52:56;6.35;;;3.55;;
26086;SDS011;13851;43.434;28.338;2022-09-09T13:55:24;4.45;;;3.05;;
26086;SDS011;13851;43.434;28.338;2022-09-09T14:00:21;3.75;;;3.40;;
26086;SDS011;13851;43.434;28.338;2022-09-09T14:02:49;3.72;;;2.97;;
26086;SDS011;13851;43.434;28.338;2022-09-09T14:05:15;3.95;;;3.10;;
26086;SDS011;13851;43.434;28.338;2022-09-09T14:07:42;4.13;;;3.17;;
26086;SDS011;13851;43.434;28.338;2022-09-09T14:10:09;3.53;;;3.25;;
26086;SDS011;13851;43.434;28.338;2022-09-09T14:12:35;3.40;;;3.10;;
26086;SDS011;13851;43.434;28.338;2022-09-09T14:15:02;7.00;;;3.60;;
26086;SDS011;13851;43.434;28.338;2022-09-09T14:17:32;4.53;;;3.38;;
26086;SDS011;13851;43.434;28.338;2022-09-09T14:19:58;3.85;;;3.00;;
26086;SDS011;13851;43.434;28.338;2022-09-09T14:22:24;4.95;;;3.30;;
26086;SDS011;13851;43.434;28.338;2022-09-09T14:24:50;4.35;;;3.35;;
26086;SDS011;13851;43.434;28.338;2022-09-09T14:27:16;3.78;;;2.88;;
26086;SDS011;13851;43.434;28.338;2022-09-09T14:29:43;3.75;;;2.90;;
26086;SDS011;13851;43.434;28.338;2022-09-09T14:32:09;3.22;;;2.95;;
26086;SDS011;13851;43.434;28.338;2022-09-09T14:34:35;3.92;;;2.90;;
26086;SDS011;13851;43.434;28.338;2022-09-09T14:37:01;5.13;;;3.17;;
26086;SDS011;13851;43.434;28.338;2022-09-09T14:39:27;7.25;;;3.08;;
26086;SDS011;13851;43.434;28.338;2022-09-09T14:41:53;4.47;;;3.38;;
26086;SDS011;13851;43.434;28.338;2022-09-09T14:44:18;4.32;;;3.13;;
26086;SDS011;13851;43.434;28.338;2022-09-09T14:50:16;3.65;;;3.33;;
26086;SDS011;13851;43.434;28.338;2022-09-09T14:52:43;3.70;;;3.40;;
26086;SDS011;13851;43.434;28.338;2022-09-09T14:55:09;3.70;;;3.40;;
26086;SDS011;13851;43.434;28.338;2022-09-09T14:57:34;7.15;;;3.65;;
26086;SDS011;13851;43.434;28.338;2022-09-09T15:00:02;8.77;;;3.67;;
26086;SDS011;13851;43.434;28.338;2022-09-09T15:02:28;6.65;;;3.50;;
26086;SDS011;13851;43.434;28.338;2022-09-09T15:04:55;3.80;;;3.50;;
26086;SDS011;13851;43.434;28.338;2022-09-09T15:07:23;5.07;;;3.70;;
26086;SDS011;13851;43.434;28.338;2022-09-09T15:09:49;5.00;;;3.28;;
26086;SDS011;13851;43.434;28.338;2022-09-09T15:12:14;4.82;;;3.55;;
26086;SDS011;13851;43.434;28.338;2022-09-09T15:14:40;4.70;;;3.50;;
26086;SDS011;13851;43.434;28.338;2022-09-09T15:17:06;3.83;;;3.40;;
26086;SDS011;13851;43.434;28.338;2022-09-09T15:19:31;5.05;;;3.33;;
26086;SDS011;13851;43.434;28.338;2022-09-09T15:21:57;4.78;;;4.25;;
26086;SDS011;13851;43.434;28.338;2022-09-09T15:24:24;4.13;;;3.60;;
26086;SDS011;13851;43.434;28.338;2022-09-09T15:26:51;4.90;;;3.70;;
26086;SDS011;13851;43.434;28.338;2022-09-09T15:29:17;4.97;;;3.95;;
26086;SDS011;13851;43.434;28.338;2022-09-09T15:31:43;5.28;;;3.50;;
26086;SDS011;13851;43.434;28.338;2022-09-09T15:34:09;4.40;;;3.97;;
26086;SDS011;13851;43.434;28.338;2022-09-09T15:36:35;4.22;;;3.80;;
26086;SDS011;13851;43.434;28.338;2022-09-09T15:39:03;4.22;;;3.72;;
26086;SDS011;13851;43.434;28.338;2022-09-09T15:41:31;7.25;;;4.18;;
26086;SDS011;13851;43.434;28.338;2022-09-09T15:43:57;5.35;;;3.72;;
26086;SDS011;13851;43.434;28.338;2022-09-09T15:46:26;5.30;;;3.58;;
26086;SDS011;13851;43.434;28.338;2022-09-09T15:48:56;4.90;;;4.30;;
26086;SDS011;13851;43.434;28.338;2022-09-09T15:51:34;5.72;;;4.32;;
26086;SDS011;13851;43.434;28.338;2022-09-09T15:54:00;6.22;;;4.38;;
26086;SDS011;13851;43.434;28.338;2022-09-09T15:56:26;6.88;;;4.40;;
26086;SDS011;13851;43.434;28.338;2022-09-09T15:58:53;5.82;;;4.00;;
26086;SDS011;13851;43.434;28.338;2022-09-09T16:01:20;6.80;;;4.30;;
26086;SDS011;13851;43.434;28.338;2022-09-09T16:03:46;4.53;;;4.10;;
26086;SDS011;13851;43.434;28.338;2022-09-09T16:06:15;6.70;;;4.65;;
26086;SDS011;13851;43.434;28.338;2022-09-09T16:08:46;6.93;;;4.43;;
26086;SDS011;13851;43.434;28.338;2022-09-09T16:11:19;5.13;;;4.35;;
26086;SDS011;13851;43.434;28.338;2022-09-09T16:13:47;5.75;;;4.15;;
26086;SDS011;13851;43.434;28.338;2022-09-09T16:16:15;5.72;;;4.40;;
26086;SDS011;13851;43.434;28.338;2022-09-09T16:18:48;6.20;;;4.20;;
26086;SDS011;13851;43.434;28.338;2022-09-09T16:23:56;7.22;;;4.85;;
26086;SDS011;13851;43.434;28.338;2022-09-09T16:26:25;7.18;;;4.60;;
26086;SDS011;13851;43.434;28.338;2022-09-09T16:28:50;6.10;;;4.93;;
26086;SDS011;13851;43.434;28.338;2022-09-09T16:31:17;6.88;;;4.53;;
26086;SDS011;13851;43.434;28.338;2022-09-09T16:33:45;5.72;;;4.80;;
26086;SDS011;13851;43.434;28.338;2022-09-09T16:36:12;7.15;;;5.30;;
26086;SDS011;13851;43.434;28.338;2022-09-09T16:38:42;6.55;;;5.55;;
26086;SDS011;13851;43.434;28.338;2022-09-09T16:41:09;7.55;;;5.05;;
26086;SDS011;13851;43.434;28.338;2022-09-09T16:43:36;7.03;;;5.22;;
26086;SDS011;13851;43.434;28.338;2022-09-09T16:46:03;6.32;;;4.75;;
26086;SDS011;13851;43.434;28.338;2022-09-09T16:48:36;5.50;;;5.00;;
26086;SDS011;13851;43.434;28.338;2022-09-09T16:51:05;7.05;;;5.00;;
26086;SDS011;13851;43.434;28.338;2022-09-09T16:53:33;5.97;;;5.38;;
26086;SDS011;13851;43.434;28.338;2022-09-09T16:56:33;6.38;;;4.60;;
26086;SDS011;13851;43.434;28.338;2022-09-09T16:58:52;6.75;;;5.22;;
26086;SDS011;13851;43.434;28.338;2022-09-09T17:01:20;7.53;;;5.13;;
26086;SDS011;13851;43.434;28.338;2022-09-09T17:03:46;6.85;;;5.13;;
26086;SDS011;13851;43.434;28.338;2022-09-09T17:06:13;6.55;;;5.15;;
26086;SDS011;13851;43.434;28.338;2022-09-09T17:08:40;9.07;;;5.18;;
26086;SDS011;13851;43.434;28.338;2022-09-09T17:11:16;7.50;;;4.88;;
26086;SDS011;13851;43.434;28.338;2022-09-09T17:13:44;9.10;;;4.95;;
26086;SDS011;13851;43.434;28.338;2022-09-09T17:16:11;11.07;;;5.30;;
26086;SDS011;13851;43.434;28.338;2022-09-09T17:18:38;7.43;;;5.53;;
26086;SDS011;13851;43.434;28.338;2022-09-09T17:21:04;8.25;;;4.60;;
26086;SDS011;13851;43.434;28.338;2022-09-09T17:23:35;6.50;;;4.72;;
26086;SDS011;13851;43.434;28.338;2022-09-09T17:26:04;10.52;;;4.95;;
26086;SDS011;13851;43.434;28.338;2022-09-09T17:28:33;5.32;;;4.90;;
26086;SDS011;13851;43.434;28.338;2022-09-09T17:31:00;8.43;;;5.13;;
26086;SDS011;13851;43.434;28.338;2022-09-09T17:33:28;7.32;;;5.28;;
26086;SDS011;13851;43.434;28.338;2022-09-09T17:35:58;8.10;;;5.35;;
26086;SDS011;13851;43.434;28.338;2022-09-09T17:38:25;6.38;;;5.22;;
26086;SDS011;13851;43.434;28.338;2022-09-09T17:41:09;5.80;;;4.70;;
26086;SDS011;13851;43.434;28.338;2022-09-09T17:43:46;5.80;;;5.22;;
26086;SDS011;13851;43.434;28.338;2022-09-09T17:48:38;9.48;;;5.95;;
26086;SDS011;13851;43.434;28.338;2022-09-09T17:51:05;9.48;;;5.18;;
26086;SDS011;13851;43.434;28.338;2022-09-09T17:53:38;5.93;;;5.40;;
26086;SDS011;13851;43.434;28.338;2022-09-09T17:56:12;6.70;;;4.93;;
26086;SDS011;13851;43.434;28.338;2022-09-09T17:58:39;7.10;;;4.63;;
26086;SDS011;13851;43.434;28.338;2022-09-09T18:01:06;8.30;;;4.85;;
26086;SDS011;13851;43.434;28.338;2022-09-09T18:03:37;5.22;;;4.57;;